Terminal Aerodrome Forecast
Issued by NWS

Home | Current Version | Previous Version | Graphics & Text | Print | Product List | Glossary On
Versions: 1 2 3 4 5 6 7 8 9 10 11 12 13 14 15 16 17 18 19 20 21 22 23 24 25 26 27
000
FTUS43 KLOT 152021 AAA
TAFMDW
TAF AMD
KMDW 152021Z 1520/1624 26013G20KT 3SM -SN SCT028 OVC035
     FM152115 26012G19KT 6SM -SN BKN030 OVC040
     FM152200 23009KT P6SM SCT025 OVC040
     FM160100 23007KT P6SM -SHSN BKN025 OVC040
     FM160400 20007KT P6SM SCT030 BKN080
     FM162100 16007KT P6SM FEW150=

USA.gov is the U.S. government's official web portal to all federal, state and local government web resources and services.